sensor_id;sensor_type;location;lat;lon;timestamp;temperature;humidity
13850;DHT22;6995;52.618;13.488;2023-04-01T00:01:00;10.50;1.00
13850;DHT22;6995;52.618;13.488;2023-04-01T00:03:27;10.50;1.00
13850;DHT22;6995;52.618;13.488;2023-04-01T00:05:54;10.40;1.00
13850;DHT22;6995;52.618;13.488;2023-04-01T00:08:20;10.40;1.00
13850;DHT22;6995;52.618;13.488;2023-04-01T00:10:46;10.40;1.00
13850;DHT22;6995;52.618;13.488;2023-04-01T00:13:11;10.40;1.00
13850;DHT22;6995;52.618;13.488;2023-04-01T00:15:37;10.40;1.00
13850;DHT22;6995;52.618;13.488;2023-04-01T00:18:03;10.50;15.30
13850;DHT22;6995;52.618;13.488;2023-04-01T00:20:29;10.50;4.80
13850;DHT22;6995;52.618;13.488;2023-04-01T00:22:54;10.50;1.00
13850;DHT22;6995;52.618;13.488;2023-04-01T00:25:20;10.50;1.00
13850;DHT22;6995;52.618;13.488;2023-04-01T00:27:46;10.50;1.00
13850;DHT22;6995;52.618;13.488;2023-04-01T00:30:12;10.50;1.00
13850;DHT22;6995;52.618;13.488;2023-04-01T00:32:38;10.50;1.00
13850;DHT22;6995;52.618;13.488;2023-04-01T00:35:04;10.50;1.00
13850;DHT22;6995;52.618;13.488;2023-04-01T00:37:30;10.50;1.00
13850;DHT22;6995;52.618;13.488;2023-04-01T00:39:56;10.50;1.00
13850;DHT22;6995;52.618;13.488;2023-04-01T00:42:22;10.60;1.00
13850;DHT22;6995;52.618;13.488;2023-04-01T00:44:51;10.60;1.00
13850;DHT22;6995;52.618;13.488;2023-04-01T00:47:18;10.60;1.00
13850;DHT22;6995;52.618;13.488;2023-04-01T00:49:50;10.70;1.00
13850;DHT22;6995;52.618;13.488;2023-04-01T00:52:23;10.70;1.00
13850;DHT22;6995;52.618;13.488;2023-04-01T00:54:54;10.70;1.00
13850;DHT22;6995;52.618;13.488;2023-04-01T00:57:34;10.80;1.00
13850;DHT22;6995;52.618;13.488;2023-04-01T01:00:05;10.70;1.00
13850;DHT22;6995;52.618;13.488;2023-04-01T01:02:33;10.70;1.00
13850;DHT22;6995;52.618;13.488;2023-04-01T01:05:00;10.70;1.00
13850;DHT22;6995;52.618;13.488;2023-04-01T01:10:32;10.60;1.00
13850;DHT22;6995;52.618;13.488;2023-04-01T01:13:10;10.60;1.00
13850;DHT22;6995;52.618;13.488;2023-04-01T01:16:14;10.60;1.00
13850;DHT22;6995;52.618;13.488;2023-04-01T01:18:53;10.60;1.00
13850;DHT22;6995;52.618;13.488;2023-04-01T01:22:02;10.60;1.00
13850;DHT22;6995;52.618;13.488;2023-04-01T01:27:26;10.60;1.00
13850;DHT22;6995;52.618;13.488;2023-04-01T01:35:36;10.60;1.00
13850;DHT22;6995;52.618;13.488;2023-04-01T01:38:07;10.60;1.00
13850;DHT22;6995;52.618;13.488;2023-04-01T01:40:35;10.50;1.00
13850;DHT22;6995;52.618;13.488;2023-04-01T01:43:16;10.50;1.00
13850;DHT22;6995;52.618;13.488;2023-04-01T01:45:47;10.60;1.00
13850;DHT22;6995;52.618;13.488;2023-04-01T01:48:16;10.50;1.00
13850;DHT22;6995;52.618;13.488;2023-04-01T01:50:44;10.60;1.00
13850;DHT22;6995;52.618;13.488;2023-04-01T01:53:12;10.60;1.00
13850;DHT22;6995;52.618;13.488;2023-04-01T01:55:41;10.60;1.00
13850;DHT22;6995;52.618;13.488;2023-04-01T02:00:50;10.50;1.00
13850;DHT22;6995;52.618;13.488;2023-04-01T02:03:17;10.50;1.00
13850;DHT22;6995;52.618;13.488;2023-04-01T02:05:45;10.50;1.00
13850;DHT22;6995;52.618;13.488;2023-04-01T02:08:21;10.50;1.00
13850;DHT22;6995;52.618;13.488;2023-04-01T02:11:11;10.40;1.00
13850;DHT22;6995;52.618;13.488;2023-04-01T02:13:46;10.40;1.00
13850;DHT22;6995;52.618;13.488;2023-04-01T02:16:36;10.40;1.00
13850;DHT22;6995;52.618;13.488;2023-04-01T02:19:04;10.40;1.00
13850;DHT22;6995;52.618;13.488;2023-04-01T02:21:36;10.40;1.00
13850;DHT22;6995;52.618;13.488;2023-04-01T02:24:06;10.50;1.00
13850;DHT22;6995;52.618;13.488;2023-04-01T02:26:34;10.50;8.70
13850;DHT22;6995;52.618;13.488;2023-04-01T02:29:01;10.50;2.50
13850;DHT22;6995;52.618;13.488;2023-04-01T02:31:29;10.60;1.00
13850;DHT22;6995;52.618;13.488;2023-04-01T02:33:56;10.50;1.00
13850;DHT22;6995;52.618;13.488;2023-04-01T02:36:22;10.50;1.00
13850;DHT22;6995;52.618;13.488;2023-04-01T02:38:49;10.60;1.00
13850;DHT22;6995;52.618;13.488;2023-04-01T02:41:16;10.60;1.00
13850;DHT22;6995;52.618;13.488;2023-04-01T02:43:42;10.60;1.00
13850;DHT22;6995;52.618;13.488;2023-04-01T02:46:08;10.60;1.00
13850;DHT22;6995;52.618;13.488;2023-04-01T02:48:33;10.60;1.00
13850;DHT22;6995;52.618;13.488;2023-04-01T02:50:59;10.60;1.00
13850;DHT22;6995;52.618;13.488;2023-04-01T02:53:25;10.60;1.00
13850;DHT22;6995;52.618;13.488;2023-04-01T02:55:51;10.60;1.00
13850;DHT22;6995;52.618;13.488;2023-04-01T02:58:18;10.60;1.00
13850;DHT22;6995;52.618;13.488;2023-04-01T03:00:43;10.60;1.00
13850;DHT22;6995;52.618;13.488;2023-04-01T03:03:21;10.70;1.00
13850;DHT22;6995;52.618;13.488;2023-04-01T03:05:47;10.80;1.00
13850;DHT22;6995;52.618;13.488;2023-04-01T03:08:13;10.80;1.00
13850;DHT22;6995;52.618;13.488;2023-04-01T03:10:38;10.70;1.00
13850;DHT22;6995;52.618;13.488;2023-04-01T03:13:04;10.80;1.00
13850;DHT22;6995;52.618;13.488;2023-04-01T03:15:30;10.80;1.00
13850;DHT22;6995;52.618;13.488;2023-04-01T03:17:56;10.80;1.00
13850;DHT22;6995;52.618;13.488;2023-04-01T03:20:21;10.70;1.00
13850;DHT22;6995;52.618;13.488;2023-04-01T03:22:47;10.70;1.00
13850;DHT22;6995;52.618;13.488;2023-04-01T03:25:12;10.70;1.00
13850;DHT22;6995;52.618;13.488;2023-04-01T03:27:38;10.70;1.00
13850;DHT22;6995;52.618;13.488;2023-04-01T03:30:05;10.70;1.00
13850;DHT22;6995;52.618;13.488;2023-04-01T03:32:34;10.60;1.00
13850;DHT22;6995;52.618;13.488;2023-04-01T03:35:00;10.60;1.00
13850;DHT22;6995;52.618;13.488;2023-04-01T03:37:26;10.60;1.00
13850;DHT22;6995;52.618;13.488;2023-04-01T03:39:52;10.60;1.00
13850;DHT22;6995;52.618;13.488;2023-04-01T03:42:18;10.60;1.00
13850;DHT22;6995;52.618;13.488;2023-04-01T03:44:43;10.60;1.00
13850;DHT22;6995;52.618;13.488;2023-04-01T03:47:09;10.60;1.00
13850;DHT22;6995;52.618;13.488;2023-04-01T03:49:35;10.60;1.00
13850;DHT22;6995;52.618;13.488;2023-04-01T03:52:01;10.60;1.00
13850;DHT22;6995;52.618;13.488;2023-04-01T03:54:26;10.50;1.00
13850;DHT22;6995;52.618;13.488;2023-04-01T03:57:06;10.50;1.00
13850;DHT22;6995;52.618;13.488;2023-04-01T03:59:32;10.50;1.00
13850;DHT22;6995;52.618;13.488;2023-04-01T04:01:57;10.50;1.00
13850;DHT22;6995;52.618;13.488;2023-04-01T04:04:23;10.60;1.00
13850;DHT22;6995;52.618;13.488;2023-04-01T04:06:49;10.50;1.00
13850;DHT22;6995;52.618;13.488;2023-04-01T04:09:16;10.50;1.00
13850;DHT22;6995;52.618;13.488;2023-04-01T04:11:41;10.60;1.00
13850;DHT22;6995;52.618;13.488;2023-04-01T04:14:07;10.60;1.00
13850;DHT22;6995;52.618;13.488;2023-04-01T04:16:35;10.60;1.00
13850;DHT22;6995;52.618;13.488;2023-04-01T04:19:02;10.50;1.00
13850;DHT22;6995;52.618;13.488;2023-04-01T04:21:28;10.50;1.00
13850;DHT22;6995;52.618;13.488;2023-04-01T04:23:53;10.60;1.00
13850;DHT22;6995;52.618;13.488;2023-04-01T04:26:19;10.50;1.00
13850;DHT22;6995;52.618;13.488;2023-04-01T04:28:45;10.50;1.00
13850;DHT22;6995;52.618;13.488;2023-04-01T04:31:11;10.50;1.00
13850;DHT22;6995;52.618;13.488;2023-04-01T04:33:36;10.50;1.00
13850;DHT22;6995;52.618;13.488;2023-04-01T04:36:03;10.60;1.00
13850;DHT22;6995;52.618;13.488;2023-04-01T04:38:29;10.60;1.00
13850;DHT22;6995;52.618;13.488;2023-04-01T04:40:55;10.60;1.00
13850;DHT22;6995;52.618;13.488;2023-04-01T04:43:21;10.60;1.00
13850;DHT22;6995;52.618;13.488;2023-04-01T04:45:47;10.60;1.00
13850;DHT22;6995;52.618;13.488;2023-04-01T04:48:14;10.60;1.00
13850;DHT22;6995;52.618;13.488;2023-04-01T04:50:44;10.60;1.00
13850;DHT22;6995;52.618;13.488;2023-04-01T04:53:12;10.60;1.00
13850;DHT22;6995;52.618;13.488;2023-04-01T04:55:38;10.70;1.00
13850;DHT22;6995;52.618;13.488;2023-04-01T04:58:03;10.70;1.00
13850;DHT22;6995;52.618;13.488;2023-04-01T05:00:29;10.70;1.00
13850;DHT22;6995;52.618;13.488;2023-04-01T05:02:54;10.70;1.00
13850;DHT22;6995;52.618;13.488;2023-04-01T05:05:20;10.80;1.00
13850;DHT22;6995;52.618;13.488;2023-04-01T05:07:46;10.80;1.00
13850;DHT22;6995;52.618;13.488;2023-04-01T05:10:11;10.80;1.00
13850;DHT22;6995;52.618;13.488;2023-04-01T05:12:37;10.80;1.00
13850;DHT22;6995;52.618;13.488;2023-04-01T05:15:07;10.80;1.00
13850;DHT22;6995;52.618;13.488;2023-04-01T05:17:33;10.90;1.00
13850;DHT22;6995;52.618;13.488;2023-04-01T05:19:59;10.80;1.00
13850;DHT22;6995;52.618;13.488;2023-04-01T05:22:25;10.80;1.00
13850;DHT22;6995;52.618;13.488;2023-04-01T05:24:51;10.80;1.00
13850;DHT22;6995;52.618;13.488;2023-04-01T05:27:17;10.80;1.00
13850;DHT22;6995;52.618;13.488;2023-04-01T05:29:42;10.90;1.00
13850;DHT22;6995;52.618;13.488;2023-04-01T05:32:09;10.80;1.00
13850;DHT22;6995;52.618;13.488;2023-04-01T05:34:39;10.80;1.00
13850;DHT22;6995;52.618;13.488;2023-04-01T05:37:04;10.80;1.00
13850;DHT22;6995;52.618;13.488;2023-04-01T05:39:30;10.80;1.00
13850;DHT22;6995;52.618;13.488;2023-04-01T05:41:56;10.80;1.00
13850;DHT22;6995;52.618;13.488;2023-04-01T05:44:25;10.80;1.00
13850;DHT22;6995;52.618;13.488;2023-04-01T05:46:51;10.80;1.00
13850;DHT22;6995;52.618;13.488;2023-04-01T05:49:17;10.80;1.00
13850;DHT22;6995;52.618;13.488;2023-04-01T05:51:42;10.90;1.00
13850;DHT22;6995;52.618;13.488;2023-04-01T05:54:15;10.90;1.00
13850;DHT22;6995;52.618;13.488;2023-04-01T05:56:41;10.80;1.00
13850;DHT22;6995;52.618;13.488;2023-04-01T05:59:06;10.80;1.00
13850;DHT22;6995;52.618;13.488;2023-04-01T06:01:32;10.80;1.00
13850;DHT22;6995;52.618;13.488;2023-04-01T06:03:58;10.90;1.00
13850;DHT22;6995;52.618;13.488;2023-04-01T06:06:27;10.90;1.00
13850;DHT22;6995;52.618;13.488;2023-04-01T06:08:56;11.00;1.00
13850;DHT22;6995;52.618;13.488;2023-04-01T06:18:45;11.10;1.00
13850;DHT22;6995;52.618;13.488;2023-04-01T06:23:48;11.00;1.00
13850;DHT22;6995;52.618;13.488;2023-04-01T06:29:07;11.00;1.00
13850;DHT22;6995;52.618;13.488;2023-04-01T06:35:04;11.00;1.00
13850;DHT22;6995;52.618;13.488;2023-04-01T06:38:01;11.00;1.00
13850;DHT22;6995;52.618;13.488;2023-04-01T06:40:53;11.00;1.00
13850;DHT22;6995;52.618;13.488;2023-04-01T06:54:38;11.10;1.00
13850;DHT22;6995;52.618;13.488;2023-04-01T06:57:33;11.20;1.00
13850;DHT22;6995;52.618;13.488;2023-04-01T07:00:05;11.20;1.00
13850;DHT22;6995;52.618;13.488;2023-04-01T07:02:48;11.20;1.00
13850;DHT22;6995;52.618;13.488;2023-04-01T07:05:19;11.30;1.00
13850;DHT22;6995;52.618;13.488;2023-04-01T07:07:48;11.30;1.00
13850;DHT22;6995;52.618;13.488;2023-04-01T07:16:12;10.90;1.00
13850;DHT22;6995;52.618;13.488;2023-04-01T07:18:50;10.60;1.00
13850;DHT22;6995;52.618;13.488;2023-04-01T07:21:32;10.50;1.00
13850;DHT22;6995;52.618;13.488;2023-04-01T07:24:41;10.40;1.00
13850;DHT22;6995;52.618;13.488;2023-04-01T07:27:12;10.30;1.00
13850;DHT22;6995;52.618;13.488;2023-04-01T07:29:38;10.30;1.00
13850;DHT22;6995;52.618;13.488;2023-04-01T07:38:45;10.50;1.00
13850;DHT22;6995;52.618;13.488;2023-04-01T07:48:17;10.80;1.00
13850;DHT22;6995;52.618;13.488;2023-04-01T07:50:29;10.70;1.00
13850;DHT22;6995;52.618;13.488;2023-04-01T07:53:21;10.70;1.00
13850;DHT22;6995;52.618;13.488;2023-04-01T07:56:21;10.70;1.00
13850;DHT22;6995;52.618;13.488;2023-04-01T08:01:49;10.90;1.00
13850;DHT22;6995;52.618;13.488;2023-04-01T08:04:24;11.00;1.00
13850;DHT22;6995;52.618;13.488;2023-04-01T08:12:07;11.20;1.00
13850;DHT22;6995;52.618;13.488;2023-04-01T08:15:14;11.50;1.00
13850;DHT22;6995;52.618;13.488;2023-04-01T08:23:12;11.10;1.00
13850;DHT22;6995;52.618;13.488;2023-04-01T08:26:10;11.00;1.00
13850;DHT22;6995;52.618;13.488;2023-04-01T08:28:44;11.00;1.00
13850;DHT22;6995;52.618;13.488;2023-04-01T08:34:25;11.10;1.00
13850;DHT22;6995;52.618;13.488;2023-04-01T08:36:57;11.10;1.00
13850;DHT22;6995;52.618;13.488;2023-04-01T08:39:57;11.20;1.00
13850;DHT22;6995;52.618;13.488;2023-04-01T08:56:04;11.20;1.00
13850;DHT22;6995;52.618;13.488;2023-04-01T09:24:42;10.80;1.00
13850;DHT22;6995;52.618;13.488;2023-04-01T09:27:28;10.70;1.00
13850;DHT22;6995;52.618;13.488;2023-04-01T09:39:26;11.20;1.00
13850;DHT22;6995;52.618;13.488;2023-04-01T09:42:22;11.30;1.00
13850;DHT22;6995;52.618;13.488;2023-04-01T09:44:59;11.20;1.00
13850;DHT22;6995;52.618;13.488;2023-04-01T09:50:48;11.00;1.00
13850;DHT22;6995;52.618;13.488;2023-04-01T10:01:21;11.20;1.00
13850;DHT22;6995;52.618;13.488;2023-04-01T10:30:30;10.60;1.00
13850;DHT22;6995;52.618;13.488;2023-04-01T11:33:34;10.00;1.00
13850;DHT22;6995;52.618;13.488;2023-04-01T11:39:08;10.00;1.00
13850;DHT22;6995;52.618;13.488;2023-04-01T11:42:17;9.80;1.00
13850;DHT22;6995;52.618;13.488;2023-04-01T12:00:58;9.70;1.00
13850;DHT22;6995;52.618;13.488;2023-04-01T12:07:40;9.90;1.00
13850;DHT22;6995;52.618;13.488;2023-04-01T12:13:37;9.90;1.00
13850;DHT22;6995;52.618;13.488;2023-04-01T12:21:56;10.20;1.00
13850;DHT22;6995;52.618;13.488;2023-04-01T12:24:36;10.10;1.00
13850;DHT22;6995;52.618;13.488;2023-04-01T12:27:35;10.00;1.00
13850;DHT22;6995;52.618;13.488;2023-04-01T12:39:11;9.80;1.00
13850;DHT22;6995;52.618;13.488;2023-04-01T12:42:47;9.90;1.00
13850;DHT22;6995;52.618;13.488;2023-04-01T12:45:00;9.70;1.00
13850;DHT22;6995;52.618;13.488;2023-04-01T12:53:12;9.50;1.00
13850;DHT22;6995;52.618;13.488;2023-04-01T13:08:00;9.40;1.00
13850;DHT22;6995;52.618;13.488;2023-04-01T13:28:35;9.40;1.00
13850;DHT22;6995;52.618;13.488;2023-04-01T13:43:08;9.00;1.00
13850;DHT22;6995;52.618;13.488;2023-04-01T14:11:30;8.90;1.00
13850;DHT22;6995;52.618;13.488;2023-04-01T14:14:21;9.00;1.00
13850;DHT22;6995;52.618;13.488;2023-04-01T14:20:33;8.90;1.00
13850;DHT22;6995;52.618;13.488;2023-04-01T14:29:33;9.20;1.00
13850;DHT22;6995;52.618;13.488;2023-04-01T14:32:50;9.30;1.00
13850;DHT22;6995;52.618;13.488;2023-04-01T14:36:01;9.40;1.00
13850;DHT22;6995;52.618;13.488;2023-04-01T14:41:17;9.10;1.00
13850;DHT22;6995;52.618;13.488;2023-04-01T14:49:35;8.60;1.00
13850;DHT22;6995;52.618;13.488;2023-04-01T14:54:42;8.40;1.00
13850;DHT22;6995;52.618;13.488;2023-04-01T14:59:51;8.40;1.00
13850;DHT22;6995;52.618;13.488;2023-04-01T15:05:32;8.60;1.00
13850;DHT22;6995;52.618;13.488;2023-04-01T15:08:23;8.40;1.00
13850;DHT22;6995;52.618;13.488;2023-04-01T15:14:08;8.60;1.00
13850;DHT22;6995;52.618;13.488;2023-04-01T15:52:05;8.20;1.00
13850;DHT22;6995;52.618;13.488;2023-04-01T16:00:25;8.10;1.00
13850;DHT22;6995;52.618;13.488;2023-04-01T16:03:16;8.00;1.00
13850;DHT22;6995;52.618;13.488;2023-04-01T16:08:59;8.10;1.00
13850;DHT22;6995;52.618;13.488;2023-04-01T16:14:06;7.90;1.00
13850;DHT22;6995;52.618;13.488;2023-04-01T17:07:48;6.90;1.00
13850;DHT22;6995;52.618;13.488;2023-04-01T17:21:38;6.80;1.00
13850;DHT22;6995;52.618;13.488;2023-04-01T17:55:43;6.10;1.00
13850;DHT22;6995;52.618;13.488;2023-04-01T18:26:49;6.00;1.00
13850;DHT22;6995;52.618;13.488;2023-04-01T19:50:29;5.30;1.00
13850;DHT22;6995;52.618;13.488;2023-04-01T19:56:36;5.10;1.00
13850;DHT22;6995;52.618;13.488;2023-04-01T20:02:52;5.10;1.00
13850;DHT22;6995;52.618;13.488;2023-04-01T20:13:45;5.10;1.00
13850;DHT22;6995;52.618;13.488;2023-04-01T20:16:18;5.10;1.00
13850;DHT22;6995;52.618;13.488;2023-04-01T20:18:59;5.10;1.00
13850;DHT22;6995;52.618;13.488;2023-04-01T20:21:47;5.00;1.00
13850;DHT22;6995;52.618;13.488;2023-04-01T20:24:33;4.90;1.00
13850;DHT22;6995;52.618;13.488;2023-04-01T20:27:21;5.00;1.00
13850;DHT22;6995;52.618;13.488;2023-04-01T20:44:44;5.00;1.00
13850;DHT22;6995;52.618;13.488;2023-04-01T21:08:58;4.80;1.00
13850;DHT22;6995;52.618;13.488;2023-04-01T22:10:09;4.60;1.00
13850;DHT22;6995;52.618;13.488;2023-04-01T22:32:46;4.60;99.90
13850;DHT22;6995;52.618;13.488;2023-04-01T22:39:40;4.60;99.90
13850;DHT22;6995;52.618;13.488;2023-04-01T23:45:26;4.30;99.90
13850;DHT22;6995;52.618;13.488;2023-04-01T23:57:28;4.20;99.90
